Time;durP1;ratioP1;P1;durP2;ratioP2;P2;SDS_P1;SDS_P2;PMS_P1;PMS_P2;Temp;Humidity;BMP_temperature;BMP_pressure;BME280_temperature;BME280_humidity;BME280_pressure;Samples;Min_cycle;Max_cycle;Signal;HPM_P1;HPM_P2
2022/01/20 00:01:43;;;;;;;7.37;5.37;;;4.80;99.90;;;;;;5070035;28;20193;-73
2022/01/20 00:04:18;;;;;;;6.90;5.00;;;4.90;99.90;;;;;;5050851;28;20240;-72
2022/01/20 00:09:47;;;;;;;7.27;4.80;;;4.90;99.90;;;;;;5070740;28;20188;-71
2022/01/20 00:23:40;;;;;;;5.37;4.40;;;5.00;99.90;;;;;;5052296;28;20193;-72
2022/01/20 00:26:11;;;;;;;7.73;4.97;;;5.00;99.90;;;;;;5050395;28;20235;-71
2022/01/20 00:28:43;;;;;;;5.17;4.10;;;5.00;99.90;;;;;;5070446;28;20197;-71
2022/01/20 00:31:29;;;;;;;5.23;4.73;;;5.00;99.90;;;;;;5051519;28;20219;-71
2022/01/20 00:34:10;;;;;;;4.27;3.83;;;5.00;99.90;;;;;;5068164;28;20279;-71
2022/01/20 00:39:22;;;;;;;4.87;4.30;;;5.00;99.90;;;;;;5069133;28;20275;-71
2022/01/20 00:41:51;;;;;;;4.33;3.77;;;5.00;99.90;;;;;;5051681;28;20256;-72
2022/01/20 00:44:19;;;;;;;4.87;4.27;;;5.10;99.90;;;;;;5048210;28;20200;-72
2022/01/20 00:46:47;;;;;;;4.73;3.87;;;5.10;99.90;;;;;;5069170;28;20311;-71
2022/01/20 00:49:17;;;;;;;4.80;3.70;;;5.10;99.90;;;;;;5050611;28;20196;-71
2022/01/20 00:51:46;;;;;;;3.67;3.37;;;5.10;99.90;;;;;;5051948;28;20201;-73
2022/01/20 00:54:13;;;;;;;3.60;3.30;;;5.10;99.90;;;;;;5051876;28;20220;-71
2022/01/20 00:56:40;;;;;;;3.83;3.07;;;5.10;99.90;;;;;;5051119;28;20672;-71
2022/01/20 00:59:09;;;;;;;3.40;3.10;;;5.20;99.90;;;;;;5050851;28;20726;-71
2022/01/20 01:01:36;;;;;;;3.73;3.17;;;5.20;99.90;;;;;;5052158;28;20228;-70
2022/01/20 01:04:05;;;;;;;3.50;2.90;;;5.20;99.90;;;;;;5050175;28;20233;-71
2022/01/20 01:06:54;;;;;;;3.03;2.77;;;5.20;99.90;;;;;;5052205;28;20308;-72
2022/01/20 01:09:22;;;;;;;2.73;2.30;;;5.20;99.90;;;;;;5051100;28;20196;-71
2022/01/20 01:11:51;;;;;;;4.33;2.80;;;5.20;99.90;;;;;;5069405;28;20212;-72
2022/01/20 01:14:20;;;;;;;5.33;2.67;;;5.20;99.90;;;;;;5047559;28;20193;-72
2022/01/20 01:25:01;;;;;;;3.33;2.17;;;5.30;99.90;;;;;;5072350;28;20231;-72
2022/01/20 01:27:33;;;;;;;3.63;1.97;;;5.40;99.90;;;;;;5055771;28;20208;-72
2022/01/20 01:30:09;;;;;;;3.50;1.93;;;5.40;99.90;;;;;;5073840;28;20258;-72
2022/01/20 01:32:47;;;;;;;7.87;2.30;;;5.30;99.90;;;;;;5073688;28;20227;-71
2022/01/20 01:35:18;;;;;;;6.30;2.30;;;5.20;99.90;;;;;;5072585;28;20683;-71
2022/01/20 01:40:31;;;;;;;6.43;1.90;;;4.90;99.90;;;;;;5054515;28;20212;-71
2022/01/20 01:43:01;;;;;;;7.33;1.93;;;4.80;99.90;;;;;;5055413;28;20300;-71
2022/01/20 01:45:32;;;;;;;7.53;1.70;;;4.80;99.90;;;;;;5052892;28;20315;-71
2022/01/20 01:47:59;;;;;;;7.23;1.83;;;4.80;99.90;;;;;;5073341;28;20220;-70
2022/01/20 01:50:28;;;;;;;10.13;1.70;;;4.90;99.90;;;;;;5053968;28;20258;-71
2022/01/20 01:52:57;;;;;;;5.20;1.50;;;4.90;99.90;;;;;;5073659;28;20249;-71
2022/01/20 01:55:25;;;;;;;7.03;1.90;;;4.90;99.90;;;;;;5055024;28;20216;-71
2022/01/20 01:57:53;;;;;;;10.87;2.13;;;4.90;99.90;;;;;;5054865;28;20231;-71
2022/01/20 02:00:23;;;;;;;7.43;1.93;;;4.90;99.90;;;;;;5054496;28;20205;-72
2022/01/20 02:03:00;;;;;;;10.87;2.20;;;5.00;99.90;;;;;;5055624;28;20241;-72
2022/01/20 02:06:18;;;;;;;6.80;1.30;;;5.00;99.90;;;;;;5055853;28;20730;-70
2022/01/20 02:08:55;;;;;;;6.23;1.50;;;5.00;99.90;;;;;;5055118;28;20208;-71
2022/01/20 02:19:49;;;;;;;10.57;1.93;;;4.90;99.90;;;;;;5053427;28;20204;-71
2022/01/20 02:22:27;;;;;;;5.53;1.43;;;4.90;99.90;;;;;;5055102;28;20247;-70
2022/01/20 02:25:19;;;;;;;4.83;1.33;;;4.90;99.90;;;;;;5054383;28;20215;-72
2022/01/20 02:27:47;;;;;;;6.97;1.57;;;5.00;99.90;;;;;;5072683;28;20247;-71
2022/01/20 02:30:16;;;;;;;11.43;1.33;;;5.00;99.90;;;;;;5054051;28;20233;-71
2022/01/20 02:32:43;;;;;;;11.77;2.00;;;5.10;99.90;;;;;;5052313;28;20205;-72
2022/01/20 02:35:12;;;;;;;10.43;1.80;;;5.10;99.90;;;;;;5053651;28;20267;-72
2022/01/20 02:37:46;;;;;;;10.37;2.03;;;5.10;99.50;;;;;;5055618;28;20288;-72
2022/01/20 02:40:35;;;;;;;10.07;2.07;;;5.10;98.70;;;;;;5070898;28;20201;-71
2022/01/20 02:45:47;;;;;;;7.70;1.83;;;5.10;98.70;;;;;;5052310;28;20281;-72
2022/01/20 02:48:14;;;;;;;7.87;1.70;;;5.00;98.20;;;;;;5054422;28;20243;-71
2022/01/20 02:50:42;;;;;;;7.40;1.70;;;4.90;97.30;;;;;;5053183;28;20681;-72
2022/01/20 02:53:10;;;;;;;14.67;1.93;;;4.90;97.30;;;;;;5053573;28;20243;-72
2022/01/20 02:55:37;;;;;;;11.43;1.80;;;4.90;97.20;;;;;;5052613;28;20309;-72
2022/01/20 02:58:06;;;;;;;11.23;1.80;;;4.80;97.20;;;;;;5054945;28;20219;-71
2022/01/20 03:00:34;;;;;;;12.90;1.80;;;4.80;97.60;;;;;;5049691;28;20208;-70
2022/01/20 03:03:01;;;;;;;11.00;1.70;;;4.80;97.50;;;;;;5071589;28;20231;-71
2022/01/20 03:05:30;;;;;;;6.63;1.47;;;4.90;97.70;;;;;;5053989;28;20613;-71
2022/01/20 03:08:03;;;;;;;11.50;1.90;;;4.80;97.80;;;;;;5054901;28;20254;-72
2022/01/20 03:10:30;;;;;;;8.23;1.40;;;4.90;97.90;;;;;;5053054;28;20189;-71
2022/01/20 03:12:58;;;;;;;5.33;1.50;;;4.80;98.10;;;;;;5070740;28;20265;-71
2022/01/20 03:15:25;;;;;;;9.83;1.70;;;4.80;98.30;;;;;;5071677;28;20200;-72
2022/01/20 03:17:52;;;;;;;11.00;2.03;;;4.80;98.50;;;;;;5053272;28;20219;-72
2022/01/20 03:20:21;;;;;;;5.90;2.40;;;4.80;98.80;;;;;;5071180;28;20192;-72
2022/01/20 03:22:48;;;;;;;6.40;1.50;;;4.80;99.30;;;;;;5070908;28;20209;-72
2022/01/20 03:25:19;;;;;;;5.37;1.40;;;4.80;99.70;;;;;;5052863;28;20193;-72
2022/01/20 03:27:47;;;;;;;10.83;1.70;;;5.40;99.90;;;;;;5053000;28;20243;-72
2022/01/20 03:30:14;;;;;;;7.83;1.90;;;4.70;99.90;;;;;;5053290;28;20213;-72
2022/01/20 03:32:41;;;;;;;8.90;1.23;;;4.70;99.90;;;;;;5052741;28;20688;-72
2022/01/20 03:35:09;;;;;;;6.07;1.50;;;4.70;99.90;;;;;;5053421;28;20589;-72
2022/01/20 03:37:37;;;;;;;11.33;1.83;;;4.70;99.90;;;;;;5053205;28;20205;-72
2022/01/20 03:40:08;;;;;;;5.63;1.53;;;4.70;99.90;;;;;;5052455;28;20210;-72
2022/01/20 03:42:38;;;;;;;3.53;1.17;;;4.60;99.90;;;;;;5052765;28;20213;-72
2022/01/20 03:45:06;;;;;;;10.17;1.53;;;4.60;99.90;;;;;;5049717;28;20788;-72
2022/01/20 03:47:35;;;;;;;5.60;1.13;;;4.60;99.90;;;;;;5051653;28;20664;-72
2022/01/20 03:50:59;;;;;;;5.47;1.40;;;4.70;99.90;;;;;;5052237;28;20213;-72
2022/01/20 03:52:55;;;;;;;6.50;1.23;;;4.70;99.90;;;;;;5050144;28;20188;-72
2022/01/20 03:55:22;;;;;;;5.10;1.37;;;4.80;99.90;;;;;;5070389;28;20280;-71
2022/01/20 03:58:04;;;;;;;1.33;0.80;;;4.80;99.90;;;;;;5053165;28;20203;-72
2022/01/20 04:00:34;;;;;;;6.93;1.60;;;4.90;99.90;;;;;;5052202;28;20201;-72
2022/01/20 04:03:17;;;;;;;4.03;1.23;;;4.90;99.90;;;;;;5046705;28;20279;-72
2022/01/20 04:05:57;;;;;;;6.40;1.47;;;4.90;99.90;;;;;;5051853;28;20236;-72
2022/01/20 04:08:56;;;;;;;7.40;1.50;;;4.80;99.90;;;;;;5058130;28;20666;-72
2022/01/20 04:11:28;;;;;;;6.67;1.07;;;4.80;99.90;;;;;;5064934;28;20319;-72
2022/01/20 04:13:58;;;;;;;7.80;1.13;;;4.70;99.90;;;;;;5051405;28;20560;-71
2022/01/20 04:16:37;;;;;;;5.63;1.10;;;4.50;99.90;;;;;;5050473;28;20262;-71
2022/01/20 04:19:07;;;;;;;2.37;0.90;;;4.40;99.90;;;;;;5068544;28;20197;-71
2022/01/20 04:21:36;;;;;;;2.50;1.13;;;4.30;99.90;;;;;;5052379;28;20295;-71
2022/01/20 04:24:05;;;;;;;5.43;1.20;;;4.30;99.90;;;;;;5051744;28;20200;-72
2022/01/20 04:26:35;;;;;;;7.70;1.63;;;4.30;99.90;;;;;;5052210;28;20216;-71
2022/01/20 04:29:08;;;;;;;6.37;1.47;;;4.30;99.90;;;;;;5051982;28;20209;-72
2022/01/20 04:31:36;;;;;;;5.37;1.40;;;4.20;99.90;;;;;;5052460;28;20665;-72
2022/01/20 04:34:04;;;;;;;5.70;1.27;;;4.30;99.90;;;;;;5068873;28;20209;-71
2022/01/20 04:36:36;;;;;;;10.23;1.50;;;4.20;99.90;;;;;;5052842;28;20192;-71
2022/01/20 04:39:08;;;;;;;15.17;1.97;;;4.20;99.90;;;;;;5051004;28;20490;-71
2022/01/20 04:41:36;;;;;;;8.23;1.63;;;4.10;99.90;;;;;;5052225;28;20197;-71
2022/01/20 04:44:10;;;;;;;6.23;1.63;;;4.00;99.90;;;;;;5066024;28;20205;-71
2022/01/20 04:46:43;;;;;;;5.53;1.67;;;3.80;99.90;;;;;;5051798;28;20571;-71
2022/01/20 04:57:02;;;;;;;6.23;1.17;;;3.70;99.90;;;;;;5050212;28;20311;-72
2022/01/20 04:57:31;;;;;;;6.23;1.37;;;3.50;99.90;;;;;;5051302;28;20287;-72
2022/01/20 04:59:59;;;;;;;12.60;1.77;;;3.50;99.90;;;;;;5051240;28;20200;-72
2022/01/20 05:02:29;;;;;;;12.23;2.07;;;3.50;99.90;;;;;;5051375;28;20208;-71
2022/01/20 05:05:02;;;;;;;6.07;1.37;;;3.50;99.90;;;;;;5054859;28;20258;-71
2022/01/20 05:07:45;;;;;;;8.30;1.90;;;3.40;99.90;;;;;;5051711;28;20592;-71
2022/01/20 05:10:13;;;;;;;5.83;1.33;;;3.40;99.90;;;;;;5051059;28;20676;-72
2022/01/20 05:13:03;;;;;;;8.90;1.77;;;3.40;99.90;;;;;;5051336;28;20201;-72
2022/01/20 05:15:33;;;;;;;7.23;1.10;;;3.80;99.90;;;;;;5050679;28;20362;-71
2022/01/20 05:18:02;;;;;;;7.83;1.47;;;3.40;99.90;;;;;;5051349;28;20208;-72
2022/01/20 05:20:30;;;;;;;4.40;1.13;;;3.30;99.90;;;;;;5050542;28;20304;-72
2022/01/20 05:22:58;;;;;;;4.57;1.30;;;3.30;99.90;;;;;;5051645;28;20205;-71
2022/01/20 05:25:30;;;;;;;5.17;0.97;;;3.20;99.90;;;;;;5050593;28;20208;-71
2022/01/20 05:27:57;;;;;;;6.77;1.27;;;3.20;99.90;;;;;;5051486;28;20217;-71
2022/01/20 05:30:24;;;;;;;1.77;0.70;;;3.00;99.90;;;;;;5050705;28;20311;-71
2022/01/20 05:33:22;;;;;;;3.53;1.17;;;3.00;99.90;;;;;;5042625;28;20668;-71
2022/01/20 05:35:49;;;;;;;4.30;1.20;;;2.90;99.90;;;;;;5068524;28;20522;-71
2022/01/20 05:38:35;;;;;;;6.40;1.23;;;2.90;99.90;;;;;;5052508;28;20229;-71
2022/01/20 05:41:03;;;;;;;3.83;0.93;;;3.00;99.90;;;;;;5049744;28;20211;-71
2022/01/20 05:43:30;;;;;;;5.53;0.87;;;2.90;99.90;;;;;;5070460;28;20286;-70
2022/01/20 05:45:58;;;;;;;4.07;1.30;;;2.90;99.90;;;;;;5050668;28;20239;-71
2022/01/20 05:48:33;;;;;;;6.07;1.30;;;2.90;99.90;;;;;;5055695;28;20584;-71
2022/01/20 05:51:19;;;;;;;6.63;1.70;;;2.80;99.90;;;;;;5070423;28;20204;-71
2022/01/20 05:53:46;;;;;;;5.27;1.63;;;2.80;99.90;;;;;;5050693;28;20295;-71
2022/01/20 05:56:13;;;;;;;8.43;1.60;;;2.80;99.90;;;;;;5050728;28;20564;-71
2022/01/20 05:58:41;;;;;;;8.63;1.60;;;2.80;99.90;;;;;;5051247;28;20205;-70
2022/01/20 06:01:12;;;;;;;7.23;1.53;;;2.80;99.90;;;;;;5050593;28;20205;-71
2022/01/20 06:03:40;;;;;;;8.80;1.50;;;2.90;99.90;;;;;;5047702;28;20314;-70
2022/01/20 06:06:12;;;;;;;3.10;1.30;;;2.80;99.90;;;;;;5047517;28;20190;-70
2022/01/20 06:08:42;;;;;;;5.93;1.47;;;2.80;99.90;;;;;;5050861;28;20221;-71
2022/01/20 06:11:10;;;;;;;10.97;1.50;;;2.80;99.90;;;;;;5064761;28;20212;-71
2022/01/20 06:13:37;;;;;;;2.93;1.00;;;2.80;99.90;;;;;;5067379;28;20225;-71
2022/01/20 06:16:06;;;;;;;4.27;1.20;;;2.80;99.90;;;;;;5055861;28;20194;-70
2022/01/20 06:18:34;;;;;;;1.87;0.90;;;2.90;99.90;;;;;;5052350;28;20259;-71
2022/01/20 06:21:03;;;;;;;9.53;1.40;;;2.90;99.90;;;;;;5052053;28;20263;-71
2022/01/20 06:23:31;;;;;;;11.03;1.97;;;3.00;99.90;;;;;;5052144;28;20212;-71
2022/01/20 06:26:02;;;;;;;6.30;1.50;;;3.00;99.90;;;;;;5050881;28;20212;-71
2022/01/20 06:28:30;;;;;;;7.50;1.70;;;3.00;99.90;;;;;;5053312;28;20217;-71
2022/01/20 06:30:57;;;;;;;8.23;1.40;;;3.10;99.90;;;;;;5041350;28;20201;-71
2022/01/20 06:33:28;;;;;;;8.43;2.03;;;3.10;99.90;;;;;;5051005;28;20198;-71
2022/01/20 06:35:57;;;;;;;5.17;1.57;;;3.20;99.90;;;;;;5050583;28;20240;-71
2022/01/20 06:38:27;;;;;;;8.17;1.40;;;3.20;99.90;;;;;;5051283;28;20706;-71
2022/01/20 06:40:56;;;;;;;5.03;1.07;;;3.30;99.90;;;;;;5049968;28;20251;-71
2022/01/20 06:43:25;;;;;;;8.03;1.33;;;3.20;99.90;;;;;;5050876;28;20212;-71
2022/01/20 06:45:52;;;;;;;4.70;1.10;;;3.10;99.90;;;;;;5051780;28;20194;-71
2022/01/20 06:48:31;;;;;;;1.17;0.87;;;3.00;99.90;;;;;;5050794;28;20221;-71
2022/01/20 06:51:21;;;;;;;3.50;0.80;;;2.90;99.90;;;;;;5051316;28;20217;-71
2022/01/20 06:53:49;;;;;;;4.37;1.10;;;2.90;99.90;;;;;;5041453;28;20225;-71
2022/01/20 06:56:17;;;;;;;4.03;1.00;;;2.90;99.90;;;;;;5050223;28;20571;-71
2022/01/20 06:58:44;;;;;;;4.07;1.20;;;2.90;99.90;;;;;;5050974;28;20301;-71
2022/01/20 07:01:15;;;;;;;4.63;1.23;;;2.90;99.90;;;;;;5048932;28;20217;-71
2022/01/20 07:03:43;;;;;;;3.30;0.80;;;2.90;99.90;;;;;;5046694;28;20299;-71
2022/01/20 07:06:14;;;;;;;2.57;0.80;;;3.00;99.90;;;;;;5050307;28;20202;-71
2022/01/20 07:09:03;;;;;;;3.80;1.00;;;3.00;99.90;;;;;;5046065;28;20266;-70
2022/01/20 07:11:34;;;;;;;2.70;0.60;;;3.10;99.90;;;;;;5049032;28;20632;-71
2022/01/20 07:14:02;;;;;;;0.50;0.50;;;3.00;99.90;;;;;;5050094;28;20209;-71
2022/01/20 07:16:29;;;;;;;1.40;0.50;;;3.10;99.90;;;;;;5051489;28;20225;-71
2022/01/20 07:18:59;;;;;;;0.90;0.60;;;3.20;99.90;;;;;;5047528;28;20233;-72
2022/01/20 07:21:27;;;;;;;0.93;0.53;;;3.30;99.90;;;;;;5049602;28;20201;-71
2022/01/20 07:23:58;;;;;;;0.97;0.70;;;3.40;99.90;;;;;;5048510;28;20641;-70
2022/01/20 07:26:27;;;;;;;0.80;0.70;;;3.40;99.90;;;;;;5048633;28;20676;-71
2022/01/20 07:29:06;;;;;;;0.90;0.70;;;3.40;99.90;;;;;;5049210;28;20259;-72
2022/01/20 07:31:33;;;;;;;1.50;0.70;;;3.40;99.90;;;;;;5048919;28;20213;-72
2022/01/20 07:34:00;;;;;;;1.13;0.77;;;3.30;99.90;;;;;;5048087;28;20201;-71
2022/01/20 07:36:28;;;;;;;0.60;0.60;;;3.30;99.90;;;;;;5049279;28;20657;-71
2022/01/20 07:38:55;;;;;;;0.83;0.47;;;3.30;99.90;;;;;;5047977;28;20212;-71
2022/01/20 07:41:22;;;;;;;1.10;0.53;;;3.30;99.90;;;;;;5047502;28;20197;-71
2022/01/20 07:43:51;;;;;;;0.40;0.40;;;3.30;99.90;;;;;;5044583;28;20364;-71
2022/01/20 07:46:37;;;;;;;1.03;0.40;;;3.30;99.90;;;;;;5049306;28;20276;-71
2022/01/20 07:49:11;;;;;;;1.10;0.50;;;3.20;99.90;;;;;;5046182;28;20213;-70
2022/01/20 07:51:41;;;;;;;1.90;0.70;;;3.20;99.90;;;;;;5063133;28;20657;-71
2022/01/20 07:54:09;;;;;;;1.37;1.00;;;3.20;99.90;;;;;;5048374;28;20204;-71
2022/01/20 07:56:36;;;;;;;0.93;0.70;;;3.20;99.90;;;;;;5048022;28;20560;-71
2022/01/20 07:59:06;;;;;;;0.50;0.50;;;2.80;99.90;;;;;;5048058;28;20202;-71
2022/01/20 08:01:37;;;;;;;2.80;0.80;;;3.20;99.90;;;;;;5038138;28;20661;-71
2022/01/20 08:04:08;;;;;;;1.07;0.70;;;3.30;99.90;;;;;;5041411;28;20249;-71
2022/01/20 08:06:35;;;;;;;1.43;0.93;;;3.30;99.90;;;;;;5047903;28;20216;-71
2022/01/20 08:09:12;;;;;;;1.90;0.90;;;3.30;99.90;;;;;;5046144;28;20222;-70
2022/01/20 08:11:58;;;;;;;1.17;0.70;;;3.20;99.90;;;;;;5037836;28;20205;-71
2022/01/20 08:14:52;;;;;;;1.17;0.80;;;3.10;99.90;;;;;;5025923;28;20206;-71
2022/01/20 08:17:33;;;;;;;1.27;0.80;;;3.00;99.90;;;;;;5037907;28;20229;-71
2022/01/20 08:20:00;;;;;;;0.97;0.80;;;3.00;99.90;;;;;;5026392;28;20206;-71
2022/01/20 08:22:31;;;;;;;1.10;0.70;;;3.00;99.90;;;;;;5027421;28;20190;-72
2022/01/20 08:24:58;;;;;;;2.17;0.80;;;3.00;99.90;;;;;;5033893;28;20226;-72
2022/01/20 08:27:25;;;;;;;1.50;0.80;;;3.10;99.90;;;;;;5033155;28;20195;-72
2022/01/20 08:29:53;;;;;;;0.67;0.67;;;3.10;99.90;;;;;;5037770;28;20201;-72
2022/01/20 08:32:25;;;;;;;0.57;0.57;;;3.10;99.90;;;;;;5036919;28;20668;-72
2022/01/20 08:35:09;;;;;;;3.10;0.73;;;3.20;99.90;;;;;;5043201;28;20276;-71
2022/01/20 08:37:54;;;;;;;2.73;0.97;;;3.20;99.90;;;;;;5039867;28;20221;-72
2022/01/20 08:40:22;;;;;;;0.70;0.50;;;3.30;99.90;;;;;;5042355;28;20719;-71
2022/01/20 08:43:07;;;;;;;4.60;1.10;;;3.20;99.90;;;;;;5027704;28;20190;-72
2022/01/20 08:45:44;;;;;;;3.33;1.10;;;3.30;98.80;;;;;;5043959;28;20196;-72
2022/01/20 08:48:13;;;;;;;2.67;0.70;;;3.40;98.40;;;;;;5032769;28;20776;-72
2022/01/20 08:51:22;;;;;;;2.23;0.80;;;3.50;98.10;;;;;;5017826;28;20226;-72
2022/01/20 08:54:09;;;;;;;2.90;0.80;;;3.50;95.40;;;;;;5027827;28;21133;-72
2022/01/20 08:56:44;;;;;;;0.80;0.60;;;3.40;95.70;;;;;;5034984;28;20818;-72
2022/01/20 08:59:17;;;;;;;3.00;0.70;;;4.40;96.70;;;;;;5035728;28;20193;-71
2022/01/20 09:05:40;;;;;;;1.87;0.70;;;3.20;95.60;;;;;;5044239;28;20230;-70
2022/01/20 09:09:04;;;;;;;1.00;0.70;;;3.90;95.10;;;;;;5051876;28;20212;-71
2022/01/20 09:11:37;;;;;;;0.97;0.60;;;2.80;94.50;;;;;;5048123;28;20201;-72
2022/01/20 09:17:26;;;;;;;0.63;0.50;;;3.60;94.90;;;;;;5048127;28;20197;-71
2022/01/20 09:19:53;;;;;;;0.40;0.40;;;3.40;95.00;;;;;;5048185;28;20189;-71
2022/01/20 09:22:22;;;;;;;0.43;0.40;;;3.40;95.50;;;;;;5050316;28;20228;-72
2022/01/20 09:24:49;;;;;;;0.50;0.50;;;3.30;95.90;;;;;;5047783;28;20210;-71
2022/01/20 09:27:17;;;;;;;1.53;0.70;;;3.30;96.30;;;;;;5047253;28;20208;-71
2022/01/20 09:29:45;;;;;;;3.27;0.70;;;3.30;96.00;;;;;;5047798;28;20232;-72
2022/01/20 09:32:16;;;;;;;2.17;0.60;;;3.40;96.20;;;;;;5048342;28;20228;-71
2022/01/20 09:34:48;;;;;;;0.87;0.80;;;3.40;96.40;;;;;;5052010;28;20233;-71
2022/01/20 09:37:16;;;;;;;2.00;0.70;;;3.50;96.50;;;;;;5048265;28;20204;-71
2022/01/20 09:39:48;;;;;;;0.60;0.60;;;3.60;96.00;;;;;;5043495;28;20198;-71
2022/01/20 09:42:40;;;;;;;1.00;0.63;;;3.70;95.90;;;;;;5065072;28;20197;-72
2022/01/20 09:45:10;;;;;;;0.93;0.70;;;3.70;95.50;;;;;;5073989;28;20193;-73
2022/01/20 09:47:37;;;;;;;2.23;1.03;;;3.80;95.60;;;;;;5076713;28;20240;-73
2022/01/20 09:50:13;;;;;;;1.40;0.70;;;3.80;95.40;;;;;;5075969;28;20185;-71
2022/01/20 09:53:00;;;;;;;1.37;0.93;;;3.90;95.40;;;;;;5052871;28;20194;-71
2022/01/20 09:55:42;;;;;;;2.03;1.00;;;4.00;95.00;;;;;;5052566;28;20202;-71
2022/01/20 09:58:11;;;;;;;1.50;0.80;;;4.10;94.00;;;;;;5043696;28;20289;-71
2022/01/20 10:00:42;;;;;;;2.47;0.63;;;4.20;93.50;;;;;;5050359;28;20735;-70
2022/01/20 10:03:12;;;;;;;0.87;0.70;;;4.20;92.30;;;;;;5052602;28;20206;-71
2022/01/20 10:05:42;;;;;;;2.73;1.03;;;4.20;92.40;;;;;;5063799;28;20223;-71
2022/01/20 10:08:18;;;;;;;2.13;0.90;;;4.20;91.40;;;;;;5055981;28;20577;-71
2022/01/20 10:11:10;;;;;;;1.63;0.90;;;4.30;90.30;;;;;;5054172;28;20213;-71
2022/01/20 10:14:00;;;;;;;1.07;0.80;;;4.30;86.70;;;;;;5050902;28;20201;-70
2022/01/20 10:16:46;;;;;;;1.67;0.70;;;4.20;85.00;;;;;;5073067;28;20200;-71
2022/01/20 10:19:24;;;;;;;5.20;1.13;;;4.20;86.70;;;;;;5052207;28;20569;-71
2022/01/20 10:21:52;;;;;;;1.43;0.90;;;4.20;83.80;;;;;;5054254;28;20216;-71
2022/01/20 10:24:28;;;;;;;1.57;0.90;;;4.20;84.00;;;;;;5070822;28;20559;-72
2022/01/20 10:27:20;;;;;;;0.70;0.70;;;4.10;84.50;;;;;;5050859;28;20214;-72
2022/01/20 10:29:57;;;;;;;1.60;0.70;;;4.10;85.00;;;;;;5061102;28;20221;-71
2022/01/20 10:32:24;;;;;;;0.53;0.53;;;4.10;85.70;;;;;;5055203;28;20823;-72
2022/01/20 10:35:02;;;;;;;1.10;0.80;;;4.10;86.40;;;;;;5053782;28;20211;-71
2022/01/20 10:37:34;;;;;;;1.43;1.00;;;4.10;85.90;;;;;;5058935;28;20258;-71
2022/01/20 10:40:07;;;;;;;2.87;0.80;;;4.10;86.10;;;;;;5052276;28;20205;-72
2022/01/20 10:42:40;;;;;;;0.73;0.60;;;4.20;85.00;;;;;;5069006;28;20240;-71
2022/01/20 10:45:12;;;;;;;0.73;0.60;;;4.30;85.30;;;;;;5055581;28;20238;-72
2022/01/20 10:47:49;;;;;;;3.23;0.90;;;4.50;85.20;;;;;;5053737;28;20204;-72
2022/01/20 10:50:23;;;;;;;1.57;0.90;;;4.70;83.30;;;;;;5055842;28;20213;-71
2022/01/20 10:52:58;;;;;;;4.63;0.97;;;4.70;82.60;;;;;;5053823;28;20593;-72
2022/01/20 10:55:30;;;;;;;3.10;0.77;;;4.70;83.30;;;;;;5057353;28;20615;-71
2022/01/20 10:58:09;;;;;;;2.87;0.83;;;4.40;84.90;;;;;;5053854;28;20625;-72
2022/01/20 11:00:41;;;;;;;1.53;0.87;;;4.40;87.10;;;;;;5062718;28;20287;-72
2022/01/20 11:03:09;;;;;;;3.70;0.80;;;4.40;88.60;;;;;;5054831;28;20605;-72
2022/01/20 11:05:39;;;;;;;0.70;0.70;;;4.40;89.00;;;;;;5051431;28;20205;-72
2022/01/20 11:08:09;;;;;;;1.27;0.63;;;4.30;89.30;;;;;;5053768;28;20259;-72
2022/01/20 11:10:39;;;;;;;1.40;0.60;;;4.30;89.90;;;;;;5058541;28;20739;-71
2022/01/20 11:13:22;;;;;;;0.87;0.70;;;4.40;90.00;;;;;;5054055;28;20197;-71
2022/01/20 11:15:52;;;;;;;3.77;0.90;;;4.50;89.30;;;;;;5052547;28;20221;-71
2022/01/20 11:18:19;;;;;;;1.80;0.80;;;4.50;89.10;;;;;;5053037;28;20212;-72
2022/01/20 11:20:51;;;;;;;2.43;0.63;;;4.50;89.10;;;;;;5052447;28;20218;-71
2022/01/20 11:23:24;;;;;;;3.00;0.73;;;4.40;89.40;;;;;;5053656;28;20212;-71
2022/01/20 11:26:04;;;;;;;0.50;0.50;;;4.30;88.40;;;;;;5052139;28;20563;-71
2022/01/20 11:28:58;;;;;;;0.50;0.50;;;4.30;88.90;;;;;;5054887;28;20574;-72
2022/01/20 11:32:35;;;;;;;2.07;0.67;;;4.20;89.10;;;;;;5069025;28;20580;-71
2022/01/20 11:35:21;;;;;;;1.17;0.67;;;4.20;88.70;;;;;;5070631;28;20208;-71
2022/01/20 11:37:57;;;;;;;0.83;0.53;;;4.10;89.00;;;;;;5054184;28;20212;-71
2022/01/20 11:40:26;;;;;;;1.13;0.77;;;4.10;89.50;;;;;;5070662;28;20192;-72
2022/01/20 11:42:58;;;;;;;0.97;0.80;;;4.10;89.60;;;;;;5052957;28;20238;-71
2022/01/20 11:45:33;;;;;;;0.70;0.70;;;4.20;89.40;;;;;;5064447;28;20197;-72
2022/01/20 11:48:11;;;;;;;1.77;0.90;;;4.40;89.10;;;;;;5071365;28;20193;-72
2022/01/20 11:50:38;;;;;;;1.73;0.90;;;4.50;88.70;;;;;;5070421;28;20201;-72
2022/01/20 11:53:11;;;;;;;1.60;0.80;;;4.50;88.50;;;;;;5067505;28;20569;-72
2022/01/20 11:55:45;;;;;;;1.83;1.00;;;4.50;88.60;;;;;;5052636;28;20236;-72
2022/01/20 11:58:14;;;;;;;1.67;1.00;;;4.30;89.30;;;;;;5066471;28;20582;-72
2022/01/20 12:00:41;;;;;;;1.67;0.90;;;4.20;90.20;;;;;;5054840;28;20201;-72
2022/01/20 12:03:14;;;;;;;4.03;1.00;;;4.00;91.30;;;;;;5045085;28;20671;-71
2022/01/20 12:05:58;;;;;;;1.03;0.70;;;3.90;92.10;;;;;;5051444;28;20674;-71
2022/01/20 12:08:33;;;;;;;1.90;0.60;;;3.80;92.50;;;;;;5051972;28;20240;-72
2022/01/20 12:11:07;;;;;;;0.70;0.70;;;3.80;92.90;;;;;;5052772;28;20514;-72
2022/01/20 12:13:45;;;;;;;3.03;0.83;;;3.80;93.20;;;;;;5053970;28;20213;-71
2022/01/20 12:16:19;;;;;;;1.30;0.70;;;3.80;93.10;;;;;;5051939;28;20668;-70
2022/01/20 12:18:50;;;;;;;3.13;0.80;;;3.80;93.00;;;;;;5046121;28;20201;-70
2022/01/20 12:21:22;;;;;;;2.10;0.90;;;3.90;93.40;;;;;;5069595;28;20264;-71
2022/01/20 12:23:53;;;;;;;0.77;0.60;;;3.80;93.50;;;;;;5068655;28;20196;-71
2022/01/20 12:26:22;;;;;;;0.60;0.60;;;3.70;94.10;;;;;;5067526;28;20276;-71
2022/01/20 12:29:00;;;;;;;0.60;0.50;;;3.80;94.40;;;;;;5068799;28;20216;-71
2022/01/20 12:31:28;;;;;;;0.70;0.60;;;3.70;94.60;;;;;;5070175;28;20525;-71
2022/01/20 12:33:55;;;;;;;0.70;0.60;;;3.70;94.90;;;;;;5050823;28;20208;-71
2022/01/20 12:36:22;;;;;;;2.40;0.90;;;3.70;95.00;;;;;;5076230;28;20247;-71
2022/01/20 12:38:51;;;;;;;8.37;1.03;;;3.80;95.10;;;;;;5051670;28;20211;-70
2022/01/20 12:41:20;;;;;;;2.10;0.97;;;3.80;94.80;;;;;;5057224;28;20257;-72
2022/01/20 12:43:53;;;;;;;1.00;0.87;;;3.70;94.70;;;;;;5067556;28;20223;-72
2022/01/20 12:46:22;;;;;;;1.90;1.00;;;3.60;94.90;;;;;;5061657;28;20205;-71
2022/01/20 12:48:56;;;;;;;1.60;0.90;;;3.40;95.10;;;;;;5068963;28;20272;-70
2022/01/20 12:51:45;;;;;;;1.80;0.97;;;3.50;95.60;;;;;;5071273;28;20204;-71
2022/01/20 12:54:16;;;;;;;1.60;0.93;;;3.40;96.30;;;;;;5068800;28;20260;-71
2022/01/20 12:56:45;;;;;;;1.30;1.00;;;3.30;97.00;;;;;;5071169;28;20292;-70
2022/01/20 12:59:20;;;;;;;3.33;1.40;;;3.20;97.50;;;;;;5069559;28;20201;-71
2022/01/20 13:01:49;;;;;;;1.97;1.13;;;3.20;98.30;;;;;;5073302;28;20235;-71
2022/01/20 13:04:22;;;;;;;0.80;0.80;;;3.20;98.50;;;;;;5045074;28;20290;-70
2022/01/20 13:06:57;;;;;;;1.37;1.27;;;3.30;98.80;;;;;;5066984;28;20658;-71
2022/01/20 13:09:27;;;;;;;0.87;0.87;;;3.30;98.90;;;;;;5070907;28;20208;-70
2022/01/20 13:11:59;;;;;;;3.40;1.60;;;3.30;99.00;;;;;;5051943;28;20240;-71
2022/01/20 13:14:40;;;;;;;2.23;1.47;;;3.30;99.80;;;;;;5069768;28;20278;-71
2022/01/20 13:17:09;;;;;;;3.47;1.30;;;3.20;99.90;;;;;;5071968;28;20192;-71
2022/01/20 13:19:38;;;;;;;1.30;0.90;;;3.00;99.90;;;;;;5067096;28;20197;-72
2022/01/20 13:22:07;;;;;;;0.90;0.90;;;2.90;99.90;;;;;;5043421;28;20201;-71
2022/01/20 13:24:37;;;;;;;1.20;0.83;;;2.80;99.90;;;;;;5066851;28;20192;-72
2022/01/20 13:27:08;;;;;;;2.87;0.83;;;2.90;99.90;;;;;;5069317;28;20205;-71
2022/01/20 13:29:49;;;;;;;2.00;0.90;;;2.90;99.90;;;;;;5050820;28;20248;-71
2022/01/20 13:32:20;;;;;;;2.20;1.00;;;2.90;99.90;;;;;;5068267;28;20355;-71
2022/01/20 13:34:54;;;;;;;0.90;0.90;;;2.90;99.90;;;;;;5066845;28;20197;-71
2022/01/20 13:37:22;;;;;;;2.87;1.00;;;2.90;99.90;;;;;;5073889;28;20525;-71
2022/01/20 13:39:50;;;;;;;2.50;1.00;;;2.80;99.90;;;;;;5066652;28;20769;-72
2022/01/20 13:42:30;;;;;;;1.73;0.90;;;2.90;99.90;;;;;;5068140;28;20189;-71
2022/01/20 13:45:18;;;;;;;1.80;0.90;;;3.00;99.90;;;;;;5067535;28;20522;-70
2022/01/20 13:47:54;;;;;;;3.43;2.03;;;3.00;99.90;;;;;;5057502;28;20661;-73
2022/01/20 13:50:23;;;;;;;3.30;1.40;;;3.20;99.90;;;;;;5064068;28;20213;-70
2022/01/20 13:52:51;;;;;;;1.77;1.13;;;3.20;99.90;;;;;;5065682;28;20645;-72
2022/01/20 13:55:27;;;;;;;1.70;1.10;;;3.20;99.90;;;;;;5050525;28;20292;-72
2022/01/20 13:57:55;;;;;;;2.03;0.90;;;3.30;99.90;;;;;;5049894;28;20627;-72
2022/01/20 14:00:26;;;;;;;1.97;0.73;;;3.30;99.90;;;;;;5068027;28;20274;-70
2022/01/20 14:02:53;;;;;;;1.30;0.80;;;3.30;99.90;;;;;;5064591;28;20280;-70
2022/01/20 14:05:23;;;;;;;2.70;1.17;;;3.40;99.90;;;;;;5067264;28;20661;-71
2022/01/20 14:07:54;;;;;;;3.20;0.80;;;3.30;99.90;;;;;;5051587;28;20223;-70
2022/01/20 14:10:22;;;;;;;0.93;0.83;;;3.20;99.90;;;;;;5068016;28;20242;-69
2022/01/20 14:12:49;;;;;;;2.23;0.80;;;3.10;99.90;;;;;;5068886;28;20228;-70
2022/01/20 14:15:17;;;;;;;1.67;0.93;;;3.10;99.90;;;;;;5050272;28;20205;-71
2022/01/20 14:17:51;;;;;;;4.40;1.00;;;3.00;99.90;;;;;;5069108;28;20258;-71